Time;durP1;ratioP1;P1;durP2;ratioP2;P2;SDS_P1;SDS_P2;PMS_P1;PMS_P2;Temp;Humidity;BMP_temperature;BMP_pressure;BME280_temperature;BME280_humidity;BME280_pressure;Samples;Min_cycle;Max_cycle;Signal;HPM_P1;HPM_P2
2024/01/27 00:01:42;;;;;;;5.03;3.07;;;3.80;1.00;;;;;;5059077;28;20170;-78
2024/01/27 00:04:08;;;;;;;6.33;3.10;;;3.70;1.00;;;;;;5060091;28;20167;-78
2024/01/27 00:06:34;;;;;;;6.27;2.80;;;3.80;1.00;;;;;;5074176;28;20231;-77
2024/01/27 00:08:59;;;;;;;5.87;3.03;;;3.70;1.00;;;;;;5062717;28;20173;-77
2024/01/27 00:11:25;;;;;;;8.50;3.30;;;3.70;1.00;;;;;;5079847;28;20198;-78
2024/01/27 00:13:50;;;;;;;6.90;3.20;;;3.60;12.20;;;;;;5080517;28;20169;-78
2024/01/27 00:16:16;;;;;;;8.70;3.27;;;3.60;30.30;;;;;;5063134;28;20668;-78
2024/01/27 00:18:41;;;;;;;5.80;2.37;;;3.50;27.20;;;;;;5080241;28;20681;-78
2024/01/27 00:21:08;;;;;;;10.60;3.07;;;3.50;39.60;;;;;;5079984;28;20173;-77
2024/01/27 00:23:37;;;;;;;7.00;2.73;;;3.40;40.80;;;;;;5063038;28;20181;-78
2024/01/27 00:26:02;;;;;;;6.80;2.77;;;3.50;42.70;;;;;;5079939;28;20243;-78
2024/01/27 00:28:28;;;;;;;6.13;2.50;;;3.50;1.00;;;;;;5062692;28;20173;-77
2024/01/27 00:30:54;;;;;;;6.40;2.60;;;3.50;1.00;;;;;;5080991;28;20184;-79
2024/01/27 00:33:19;;;;;;;6.53;2.70;;;3.50;1.00;;;;;;5080546;28;20169;-78
2024/01/27 00:35:45;;;;;;;5.57;2.77;;;3.50;1.00;;;;;;5080632;28;20222;-79
2024/01/27 00:38:10;;;;;;;5.73;2.30;;;3.60;1.00;;;;;;5080458;28;20212;-77
2024/01/27 00:40:36;;;;;;;5.77;2.53;;;3.60;1.00;;;;;;5079609;28;20215;-78
2024/01/27 00:43:04;;;;;;;8.13;2.43;;;3.60;1.00;;;;;;5079817;28;20172;-78
2024/01/27 00:45:30;;;;;;;6.23;2.33;;;3.60;1.00;;;;;;5062384;28;20196;-78
2024/01/27 00:47:59;;;;;;;7.23;2.50;;;3.70;1.00;;;;;;5079938;28;20177;-77
2024/01/27 00:50:25;;;;;;;5.03;2.20;;;3.70;1.00;;;;;;5078550;28;20180;-78
2024/01/27 00:52:50;;;;;;;6.47;2.67;;;3.60;1.00;;;;;;5080082;28;20185;-78
2024/01/27 00:55:17;;;;;;;6.67;2.53;;;3.50;1.00;;;;;;5062240;28;20279;-78
2024/01/27 00:57:43;;;;;;;7.67;2.47;;;3.30;1.00;;;;;;5079900;28;20185;-78
2024/01/27 01:00:10;;;;;;;4.67;2.70;;;3.30;1.00;;;;;;5061917;28;20223;-78
2024/01/27 01:02:36;;;;;;;7.43;2.83;;;3.20;1.00;;;;;;5061787;28;20177;-78
2024/01/27 01:05:05;;;;;;;7.37;2.67;;;3.10;2.30;;;;;;5061415;28;20173;-78
2024/01/27 01:07:31;;;;;;;7.60;2.90;;;3.00;27.50;;;;;;5080184;28;20209;-78
2024/01/27 01:09:57;;;;;;;7.10;3.07;;;2.80;67.20;;;;;;5061820;28;20177;-78
2024/01/27 01:12:25;;;;;;;5.70;2.60;;;2.90;96.20;;;;;;5079831;28;20181;-77
2024/01/27 01:14:51;;;;;;;5.87;2.80;;;2.90;72.10;;;;;;5079810;28;20173;-78
2024/01/27 01:17:16;;;;;;;5.17;2.40;;;2.80;59.70;;;;;;5061823;28;20199;-77
2024/01/27 01:19:42;;;;;;;5.30;2.50;;;2.80;91.90;;;;;;5061088;28;20571;-81
2024/01/27 01:22:07;;;;;;;5.47;2.50;;;2.70;99.90;;;;;;5078982;28;20185;-77
2024/01/27 01:24:33;;;;;;;5.00;2.20;;;2.80;99.90;;;;;;5060872;28;20185;-78
2024/01/27 01:26:59;;;;;;;7.33;2.57;;;2.80;99.90;;;;;;5078930;28;20189;-77
2024/01/27 01:29:25;;;;;;;7.73;2.80;;;2.80;99.90;;;;;;5061027;28;20180;-81
2024/01/27 01:31:51;;;;;;;4.67;2.53;;;2.80;99.90;;;;;;5060600;28;20188;-78
2024/01/27 01:34:16;;;;;;;4.40;2.33;;;2.80;99.90;;;;;;5078410;28;20181;-78
2024/01/27 01:36:42;;;;;;;6.00;2.40;;;2.70;99.90;;;;;;5077761;28;20200;-77
2024/01/27 01:39:10;;;;;;;8.23;2.33;;;2.80;99.90;;;;;;5077543;28;20284;-78
2024/01/27 01:41:35;;;;;;;3.73;2.27;;;2.70;99.90;;;;;;5077237;28;20177;-77
2024/01/27 01:44:01;;;;;;;7.23;2.50;;;2.70;99.90;;;;;;5079306;28;20202;-79
2024/01/27 01:46:27;;;;;;;5.60;2.80;;;2.70;99.90;;;;;;5060061;28;20201;-78
2024/01/27 01:48:53;;;;;;;4.43;2.70;;;2.60;99.90;;;;;;5059543;28;20177;-78
2024/01/27 01:51:19;;;;;;;5.13;2.87;;;2.50;99.90;;;;;;5059088;28;20173;-80
2024/01/27 01:53:48;;;;;;;4.40;2.57;;;2.50;99.90;;;;;;5076699;28;20205;-80
2024/01/27 01:56:15;;;;;;;7.03;2.60;;;2.50;99.90;;;;;;5058749;28;20242;-78
2024/01/27 01:58:41;;;;;;;5.97;2.53;;;2.50;99.90;;;;;;5059221;28;20208;-78
2024/01/27 02:01:06;;;;;;;7.40;2.93;;;2.50;99.90;;;;;;5058195;28;20710;-78
2024/01/27 02:03:32;;;;;;;6.03;2.53;;;2.50;99.90;;;;;;5077583;28;20202;-78
2024/01/27 02:05:58;;;;;;;6.23;2.70;;;2.60;99.90;;;;;;5060489;28;20230;-78
2024/01/27 02:08:23;;;;;;;3.57;2.30;;;2.60;99.90;;;;;;5076911;28;20180;-78
2024/01/27 02:10:49;;;;;;;4.77;2.40;;;2.70;99.90;;;;;;5058733;28;20613;-78
2024/01/27 02:13:18;;;;;;;5.67;2.53;;;2.70;95.60;;;;;;5058958;28;20355;-78
2024/01/27 02:15:44;;;;;;;9.37;3.67;;;2.70;35.40;;;;;;5077086;28;20200;-78
2024/01/27 02:18:10;;;;;;;5.03;2.60;;;2.60;58.10;;;;;;5076754;28;20196;-80
2024/01/27 02:20:37;;;;;;;5.50;2.57;;;2.60;98.30;;;;;;5058694;28;20241;-78
2024/01/27 02:23:04;;;;;;;5.30;2.60;;;2.50;46.90;;;;;;5076576;28;20172;-78
2024/01/27 02:25:30;;;;;;;7.23;2.77;;;2.30;61.70;;;;;;5058969;28;20195;-78
2024/01/27 02:27:56;;;;;;;6.10;2.20;;;2.20;96.60;;;;;;5076099;28;20264;-78
2024/01/27 02:30:21;;;;;;;5.23;2.57;;;2.10;99.90;;;;;;5075635;28;20223;-78
2024/01/27 02:32:47;;;;;;;6.20;2.93;;;1.90;99.90;;;;;;5058834;28;20181;-78
2024/01/27 02:35:14;;;;;;;3.87;2.57;;;1.90;99.90;;;;;;5075683;28;20223;-78
2024/01/27 02:37:40;;;;;;;3.70;2.40;;;1.90;99.90;;;;;;5058542;28;20200;-78
2024/01/27 02:40:07;;;;;;;3.03;2.10;;;1.90;99.90;;;;;;5058444;28;20182;-78
2024/01/27 02:42:33;;;;;;;5.97;2.77;;;1.90;99.90;;;;;;5075863;28;20202;-79
2024/01/27 02:44:58;;;;;;;5.67;2.67;;;1.80;99.90;;;;;;5058139;28;20183;-79
2024/01/27 02:47:24;;;;;;;5.87;2.70;;;1.70;99.90;;;;;;5058311;28;20216;-78
2024/01/27 02:49:49;;;;;;;5.63;2.83;;;1.70;99.90;;;;;;5075664;28;20183;-79
2024/01/27 02:52:15;;;;;;;5.83;2.70;;;1.60;99.90;;;;;;5057582;28;20180;-78
2024/01/27 02:54:41;;;;;;;5.00;2.50;;;1.50;99.90;;;;;;5076145;28;20173;-80
2024/01/27 02:57:06;;;;;;;5.13;2.77;;;1.50;99.90;;;;;;5076297;28;20700;-78
2024/01/27 02:59:32;;;;;;;6.07;2.93;;;1.50;99.90;;;;;;5057824;28;20303;-79
2024/01/27 03:01:57;;;;;;;7.43;2.80;;;1.50;99.90;;;;;;5075620;28;20169;-78
2024/01/27 03:04:23;;;;;;;6.70;2.77;;;1.40;99.90;;;;;;5075841;28;20176;-81
2024/01/27 03:06:49;;;;;;;5.90;2.80;;;1.50;99.90;;;;;;5057841;28;20312;-78
2024/01/27 03:09:15;;;;;;;6.23;2.70;;;1.50;99.90;;;;;;5057530;28;20204;-79
2024/01/27 03:11:40;;;;;;;5.10;2.87;;;1.40;99.90;;;;;;5075206;28;20173;-78
2024/01/27 03:14:06;;;;;;;7.77;3.07;;;1.30;99.90;;;;;;5078926;28;20641;-78
2024/01/27 03:16:32;;;;;;;7.60;2.80;;;1.40;99.90;;;;;;5061620;28;20226;-78
2024/01/27 03:18:58;;;;;;;5.40;2.57;;;1.40;99.90;;;;;;5079401;28;20272;-78
2024/01/27 03:21:23;;;;;;;9.60;2.97;;;1.30;99.90;;;;;;5060280;28;20301;-78
2024/01/27 03:23:49;;;;;;;6.53;2.80;;;1.20;99.90;;;;;;5061893;28;20267;-78
2024/01/27 03:26:14;;;;;;;8.20;3.60;;;1.10;99.90;;;;;;5061814;28;20193;-78
2024/01/27 03:28:40;;;;;;;6.37;2.97;;;1.10;99.90;;;;;;5061456;28;20643;-80
2024/01/27 03:31:06;;;;;;;6.43;3.13;;;1.10;99.90;;;;;;5060675;28;20180;-79
2024/01/27 03:33:31;;;;;;;5.90;2.90;;;1.20;99.90;;;;;;5079236;28;20176;-78
2024/01/27 03:35:57;;;;;;;6.27;3.10;;;1.10;99.90;;;;;;5079371;28;20231;-78
2024/01/27 03:38:23;;;;;;;7.33;2.63;;;1.10;99.90;;;;;;5078925;28;20204;-78
2024/01/27 03:40:48;;;;;;;5.27;2.70;;;1.10;99.90;;;;;;5061081;28;20204;-78
2024/01/27 03:43:14;;;;;;;5.07;2.60;;;1.00;99.90;;;;;;5061455;28;20175;-79
2024/01/27 03:45:40;;;;;;;7.40;2.50;;;0.90;99.90;;;;;;5078864;28;20192;-78
2024/01/27 03:48:06;;;;;;;6.40;2.47;;;0.90;99.90;;;;;;5060890;28;20289;-78
2024/01/27 03:50:31;;;;;;;5.60;2.23;;;0.80;99.90;;;;;;5078484;28;20190;-78
2024/01/27 03:52:57;;;;;;;9.50;3.57;;;0.80;99.90;;;;;;5061221;28;20180;-78
2024/01/27 03:55:22;;;;;;;4.77;2.70;;;0.70;99.90;;;;;;5061369;28;20225;-78
2024/01/27 03:57:48;;;;;;;7.60;2.63;;;0.60;99.90;;;;;;5061507;28;20206;-78
2024/01/27 04:00:13;;;;;;;10.87;3.20;;;0.60;99.90;;;;;;5078640;28;20179;-76
2024/01/27 04:02:39;;;;;;;8.30;2.70;;;0.60;99.90;;;;;;5061130;28;20636;-78
2024/01/27 04:05:05;;;;;;;7.47;2.73;;;0.70;99.90;;;;;;5078792;28;20268;-80
2024/01/27 04:07:31;;;;;;;7.60;2.80;;;0.80;99.90;;;;;;5061446;28;20207;-80
2024/01/27 04:09:57;;;;;;;6.20;2.70;;;0.70;99.90;;;;;;5078672;28;20176;-78
2024/01/27 04:12:22;;;;;;;4.13;2.43;;;0.70;99.90;;;;;;5078774;28;20201;-78
2024/01/27 04:14:48;;;;;;;6.53;2.70;;;0.70;99.90;;;;;;5060990;28;20185;-78
2024/01/27 04:17:13;;;;;;;6.80;2.47;;;0.70;99.90;;;;;;5079074;28;20385;-79
2024/01/27 04:19:39;;;;;;;7.17;2.63;;;0.70;99.90;;;;;;5078048;28;20199;-78
2024/01/27 04:22:04;;;;;;;6.73;2.63;;;0.70;99.90;;;;;;5078228;28;20208;-78
2024/01/27 04:24:30;;;;;;;5.67;2.23;;;0.70;99.90;;;;;;5060770;28;20173;-78
2024/01/27 04:26:55;;;;;;;5.67;2.67;;;0.70;99.90;;;;;;5078797;28;20206;-78
2024/01/27 04:29:21;;;;;;;7.80;2.43;;;0.70;99.90;;;;;;5060317;28;20670;-78
2024/01/27 04:31:46;;;;;;;7.07;2.60;;;0.80;99.90;;;;;;5060045;28;20182;-78
2024/01/27 04:34:12;;;;;;;5.73;2.60;;;0.70;99.90;;;;;;5078209;28;20171;-79
2024/01/27 04:36:38;;;;;;;9.13;2.30;;;0.70;99.90;;;;;;5078684;28;20245;-79
2024/01/27 04:39:04;;;;;;;6.03;2.50;;;0.60;99.90;;;;;;5060548;28;20207;-78
2024/01/27 04:41:30;;;;;;;3.53;2.20;;;0.50;99.90;;;;;;5059892;28;20167;-78
2024/01/27 04:43:56;;;;;;;7.60;2.57;;;0.50;99.90;;;;;;5078524;28;20175;-78
2024/01/27 04:46:22;;;;;;;7.63;2.30;;;0.60;99.90;;;;;;5078450;28;20203;-78
2024/01/27 04:48:48;;;;;;;5.57;2.70;;;0.70;99.90;;;;;;5077772;28;20183;-80
2024/01/27 04:51:14;;;;;;;6.00;2.60;;;0.70;99.90;;;;;;5058704;28;20228;-78
2024/01/27 04:53:39;;;;;;;4.80;2.47;;;0.60;99.90;;;;;;5059402;28;20656;-78
2024/01/27 04:56:07;;;;;;;8.83;2.07;;;0.60;99.90;;;;;;5059550;28;20194;-79
2024/01/27 04:58:34;;;;;;;6.93;2.50;;;0.50;99.90;;;;;;5059644;28;20209;-79
2024/01/27 05:01:00;;;;;;;7.17;2.30;;;0.50;99.90;;;;;;5076995;28;20169;-78
2024/01/27 05:03:26;;;;;;;5.20;2.57;;;0.40;99.90;;;;;;5059598;28;20228;-78
2024/01/27 05:05:52;;;;;;;10.00;2.87;;;0.30;99.90;;;;;;5111843;22;20322;-78
2024/01/27 05:08:19;;;;;;;5.30;3.13;;;0.30;99.90;;;;;;5053955;28;20270;-79
2024/01/27 05:10:44;;;;;;;8.43;2.73;;;0.30;99.90;;;;;;5053299;28;20197;-79
2024/01/27 05:13:10;;;;;;;6.43;2.73;;;0.30;99.90;;;;;;5053909;28;20178;-79
2024/01/27 05:15:35;;;;;;;7.83;2.83;;;0.40;99.90;;;;;;5054895;28;20174;-79
2024/01/27 05:18:01;;;;;;;5.10;2.63;;;0.30;99.90;;;;;;5073425;28;20237;-78
2024/01/27 05:20:27;;;;;;;6.30;2.50;;;0.30;99.90;;;;;;5073159;28;20173;-79
2024/01/27 05:22:52;;;;;;;6.57;2.87;;;0.40;99.90;;;;;;5072420;28;20168;-79
2024/01/27 05:25:18;;;;;;;8.63;3.30;;;0.30;99.90;;;;;;5073561;28;20180;-79
2024/01/27 05:27:43;;;;;;;9.70;2.90;;;0.40;99.90;;;;;;5073510;28;20184;-79
2024/01/27 05:30:09;;;;;;;7.33;2.90;;;0.50;99.90;;;;;;5073481;28;20195;-79
2024/01/27 05:32:35;;;;;;;6.50;2.13;;;0.50;99.90;;;;;;5073170;28;20246;-79
2024/01/27 05:35:00;;;;;;;5.90;2.57;;;0.50;99.90;;;;;;5073251;28;20177;-79
2024/01/27 05:37:26;;;;;;;5.40;2.87;;;0.50;99.90;;;;;;5073006;28;20280;-79
2024/01/27 05:39:51;;;;;;;5.90;2.70;;;0.40;99.90;;;;;;5073184;28;20179;-79
2024/01/27 05:42:17;;;;;;;9.17;3.50;;;0.40;99.90;;;;;;5072920;28;20176;-79
2024/01/27 05:44:43;;;;;;;7.43;2.70;;;0.30;99.90;;;;;;5072007;28;20174;-79
2024/01/27 05:47:10;;;;;;;7.87;2.77;;;0.30;99.90;;;;;;5072066;28;20198;-79
2024/01/27 05:49:36;;;;;;;8.23;2.53;;;0.40;99.90;;;;;;5071583;28;20196;-79
2024/01/27 05:52:02;;;;;;;7.53;2.50;;;0.40;99.90;;;;;;5071641;28;20178;-80
2024/01/27 05:54:28;;;;;;;6.07;2.77;;;0.30;99.90;;;;;;5073109;28;20213;-79
2024/01/27 05:56:53;;;;;;;8.73;2.70;;;0.30;99.90;;;;;;5071878;28;20195;-79
2024/01/27 05:59:19;;;;;;;8.87;3.00;;;0.20;99.90;;;;;;5073010;28;20217;-79
2024/01/27 06:01:44;;;;;;;5.10;2.47;;;0.20;99.90;;;;;;5071195;28;20173;-79
2024/01/27 06:04:13;;;;;;;7.70;3.03;;;0.20;99.90;;;;;;5073034;28;20169;-80
2024/01/27 06:06:39;;;;;;;9.13;3.50;;;0.20;99.90;;;;;;5072910;28;20220;-79
2024/01/27 06:09:05;;;;;;;7.83;2.63;;;0.30;99.90;;;;;;5071718;28;20262;-79
2024/01/27 06:11:30;;;;;;;6.60;2.73;;;0.40;99.90;;;;;;5072376;28;20181;-79
2024/01/27 06:14:01;;;;;;;5.50;2.67;;;0.40;99.90;;;;;;5072754;28;20182;-78
2024/01/27 06:16:27;;;;;;;10.23;3.00;;;0.30;99.90;;;;;;5071550;28;20205;-79
2024/01/27 06:18:54;;;;;;;6.67;2.97;;;0.20;99.90;;;;;;5071424;28;20198;-78
2024/01/27 06:21:20;;;;;;;5.73;2.50;;;0.10;99.90;;;;;;5071127;28;20177;-79
2024/01/27 06:23:45;;;;;;;5.57;2.80;;;0.10;99.90;;;;;;5071470;28;20185;-79
2024/01/27 06:26:13;;;;;;;6.40;2.70;;;0.10;99.90;;;;;;5072378;28;20185;-79
2024/01/27 06:28:42;;;;;;;11.00;3.10;;;0.10;99.90;;;;;;5071389;28;20168;-80
2024/01/27 06:31:08;;;;;;;12.27;3.10;;;0.20;99.90;;;;;;5070663;28;20188;-79
2024/01/27 06:33:35;;;;;;;8.07;3.50;;;0.30;99.90;;;;;;5072712;28;20169;-80
2024/01/27 06:36:01;;;;;;;7.73;3.20;;;0.30;99.90;;;;;;5071336;28;20198;-80
2024/01/27 06:38:27;;;;;;;9.07;4.03;;;0.20;99.90;;;;;;5072425;28;20196;-80
2024/01/27 06:40:56;;;;;;;6.30;3.20;;;0.10;99.90;;;;;;5071524;28;20169;-79
2024/01/27 06:43:24;;;;;;;9.33;3.80;;;0.10;99.90;;;;;;5072224;28;20167;-79
2024/01/27 06:45:50;;;;;;;11.90;3.30;;;0.10;99.90;;;;;;5072130;28;20288;-80
2024/01/27 06:48:15;;;;;;;9.57;3.50;;;0.10;99.90;;;;;;5070066;28;20602;-79
2024/01/27 06:50:44;;;;;;;8.30;3.20;;;0.10;99.90;;;;;;5071833;28;20732;-79
2024/01/27 06:53:12;;;;;;;7.83;4.00;;;0.20;99.90;;;;;;5072482;28;20174;-80
2024/01/27 06:55:38;;;;;;;8.00;3.27;;;0.10;99.90;;;;;;5071049;28;20178;-79
2024/01/27 06:58:03;;;;;;;8.37;2.83;;;0.80;99.90;;;;;;5071771;28;20258;-78
2024/01/27 07:00:29;;;;;;;8.67;3.23;;;1.70;99.90;;;;;;5070835;28;20231;-80
2024/01/27 07:02:57;;;;;;;8.97;3.37;;;2.40;99.90;;;;;;5071741;28;20203;-81
2024/01/27 07:05:23;;;;;;;8.67;3.10;;;2.60;99.90;;;;;;5071804;28;20206;-81
2024/01/27 07:07:51;;;;;;;6.50;2.70;;;2.20;99.90;;;;;;5072412;28;20227;-80
2024/01/27 07:10:16;;;;;;;5.93;3.27;;;1.50;95.50;;;;;;5070280;28;20183;-79
2024/01/27 07:12:42;;;;;;;10.07;3.13;;;1.20;99.90;;;;;;5071191;28;20182;-81
2024/01/27 07:15:08;;;;;;;7.73;3.10;;;0.80;99.90;;;;;;5070901;28;20180;-79
2024/01/27 07:17:33;;;;;;;6.77;2.87;;;0.60;99.90;;;;;;5072531;28;20214;-80
2024/01/27 07:19:59;;;;;;;7.50;3.20;;;0.50;99.90;;;;;;5072256;28;20179;-80
2024/01/27 07:22:24;;;;;;;11.10;3.23;;;0.30;99.90;;;;;;5072451;28;20177;-82
2024/01/27 07:24:51;;;;;;;6.83;3.33;;;0.30;99.90;;;;;;5071020;28;20262;-81
2024/01/27 07:27:16;;;;;;;5.80;2.97;;;0.30;99.90;;;;;;5071993;28;20233;-82
2024/01/27 07:29:42;;;;;;;5.53;3.37;;;0.30;99.90;;;;;;5071763;28;20207;-80
2024/01/27 07:32:12;;;;;;;9.53;3.47;;;0.30;99.90;;;;;;5070487;28;20209;-81
2024/01/27 07:34:42;;;;;;;8.87;3.10;;;0.30;99.90;;;;;;5072376;28;20601;-81
2024/01/27 07:37:08;;;;;;;8.63;3.20;;;0.30;99.90;;;;;;5070475;28;20348;-79
2024/01/27 07:39:34;;;;;;;8.57;3.40;;;0.20;99.90;;;;;;5070099;28;20763;-81
2024/01/27 07:41:59;;;;;;;8.83;3.77;;;0.10;99.90;;;;;;5070261;28;20182;-83
2024/01/27 07:44:25;;;;;;;10.80;4.10;;;0.10;99.90;;;;;;5071992;28;20173;-86
2024/01/27 07:46:51;;;;;;;9.10;4.67;;;0.20;99.90;;;;;;5070466;28;20196;-84
2024/01/27 07:49:17;;;;;;;8.50;4.03;;;0.30;99.90;;;;;;5070322;28;20699;-84
2024/01/27 07:51:43;;;;;;;8.73;4.10;;;0.30;99.90;;;;;;5071316;28;20659;-83
2024/01/27 07:54:08;;;;;;;10.47;3.80;;;0.40;99.90;;;;;;5071553;28;20269;-80
2024/01/27 07:56:34;;;;;;;8.73;4.23;;;0.40;99.90;;;;;;5070413;28;20237;-81
2024/01/27 07:59:00;;;;;;;7.70;4.13;;;0.40;99.90;;;;;;5072780;28;20620;-81
2024/01/27 08:01:25;;;;;;;8.73;3.93;;;0.50;99.90;;;;;;5074927;28;20179;-84
2024/01/27 08:03:51;;;;;;;10.43;3.93;;;0.50;99.90;;;;;;5075156;28;20593;-81
2024/01/27 08:06:18;;;;;;;12.07;4.47;;;0.50;99.90;;;;;;5073981;28;20259;-81
2024/01/27 08:08:48;;;;;;;9.87;3.87;;;0.60;99.90;;;;;;5075126;28;20681;-82
2024/01/27 08:11:17;;;;;;;13.80;4.27;;;0.60;99.90;;;;;;5074519;28;20677;-82
2024/01/27 08:13:43;;;;;;;8.13;3.70;;;0.70;99.90;;;;;;5074195;28;20185;-81
2024/01/27 08:16:11;;;;;;;8.23;3.60;;;0.70;99.90;;;;;;5074965;28;20273;-80
2024/01/27 08:18:38;;;;;;;10.10;3.80;;;0.70;99.90;;;;;;5073578;28;20255;-81
2024/01/27 08:21:04;;;;;;;8.13;4.17;;;0.70;99.90;;;;;;5074504;28;20262;-83
2024/01/27 08:23:30;;;;;;;10.13;4.10;;;0.80;99.90;;;;;;5073581;28;20204;-81
2024/01/27 08:25:55;;;;;;;10.30;4.30;;;0.90;99.90;;;;;;5073430;28;20758;-81
2024/01/27 08:28:21;;;;;;;8.63;4.00;;;0.90;99.90;;;;;;5073835;28;20182;-82
2024/01/27 08:30:47;;;;;;;7.40;3.40;;;0.90;99.90;;;;;;5074188;28;20202;-82
2024/01/27 08:33:13;;;;;;;9.97;3.80;;;0.90;99.90;;;;;;5074560;28;20687;-81
2024/01/27 08:35:38;;;;;;;7.77;3.57;;;1.00;99.90;;;;;;5074680;28;20281;-82
2024/01/27 08:38:05;;;;;;;9.83;3.50;;;1.10;99.90;;;;;;5074569;28;20207;-80
2024/01/27 08:40:31;;;;;;;11.10;3.40;;;1.20;99.90;;;;;;5074460;28;20186;-81
2024/01/27 08:42:57;;;;;;;9.23;3.80;;;1.40;99.90;;;;;;5073653;28;20178;-83
2024/01/27 08:45:23;;;;;;;10.17;3.57;;;1.40;99.90;;;;;;5074421;28;20178;-80
2024/01/27 08:47:48;;;;;;;10.57;3.07;;;1.50;99.90;;;;;;5073999;28;20313;-83
2024/01/27 08:50:14;;;;;;;9.33;3.17;;;1.60;99.90;;;;;;5072796;28;20175;-75
2024/01/27 08:52:39;;;;;;;10.37;3.50;;;1.60;99.90;;;;;;5074719;28;20218;-79
2024/01/27 08:55:05;;;;;;;8.33;3.00;;;1.80;99.90;;;;;;5074174;28;20198;-83
2024/01/27 08:57:31;;;;;;;7.67;3.20;;;1.90;99.90;;;;;;5072910;28;20193;-83
2024/01/27 08:59:56;;;;;;;9.13;3.10;;;2.00;99.90;;;;;;5074580;28;20298;-79
2024/01/27 09:02:24;;;;;;;11.20;3.67;;;2.00;99.90;;;;;;5074996;28;20646;-82
2024/01/27 09:04:50;;;;;;;13.67;3.77;;;2.10;99.90;;;;;;5073940;28;20179;-79
2024/01/27 09:07:17;;;;;;;8.70;2.87;;;2.20;99.90;;;;;;5073049;28;20214;-82
2024/01/27 09:09:42;;;;;;;10.40;3.23;;;2.30;99.90;;;;;;5073114;28;20565;-81
2024/01/27 09:12:08;;;;;;;7.93;3.13;;;2.40;99.90;;;;;;5073118;28;20647;-81
2024/01/27 09:14:34;;;;;;;8.00;3.23;;;2.60;99.90;;;;;;5074300;28;20186;-80
2024/01/27 09:17:02;;;;;;;10.63;2.87;;;2.70;99.90;;;;;;5072902;28;20213;-81
2024/01/27 09:19:28;;;;;;;6.17;3.27;;;2.80;99.90;;;;;;5073817;28;20720;-81
2024/01/27 09:21:54;;;;;;;10.17;3.43;;;2.90;99.90;;;;;;5074585;28;20180;-81
2024/01/27 09:24:20;;;;;;;10.70;3.23;;;2.90;99.90;;;;;;5073840;28;20229;-81
2024/01/27 09:26:45;;;;;;;10.47;3.20;;;3.00;99.90;;;;;;5074657;28;20216;-81
2024/01/27 09:29:11;;;;;;;9.87;3.07;;;3.10;99.90;;;;;;5074497;28;20181;-83
2024/01/27 09:31:36;;;;;;;11.33;3.87;;;3.20;99.90;;;;;;5073163;28;20191;-84
2024/01/27 09:34:02;;;;;;;8.43;3.03;;;3.30;99.90;;;;;;5072177;28;20218;-84
2024/01/27 09:36:28;;;;;;;6.57;3.07;;;3.40;99.90;;;;;;5073214;28;20275;-84
2024/01/27 09:38:54;;;;;;;13.27;3.50;;;3.50;99.90;;;;;;5073441;28;20563;-81
2024/01/27 09:41:20;;;;;;;16.43;4.87;;;3.60;99.90;;;;;;5071906;28;20177;-83
2024/01/27 09:43:47;;;;;;;9.47;3.37;;;3.70;99.90;;;;;;5073255;28;20186;-89
2024/01/27 09:46:14;;;;;;;7.70;3.20;;;3.80;99.90;;;;;;5072418;28;20739;-81
2024/01/27 09:48:39;;;;;;;13.57;3.50;;;4.00;99.90;;;;;;5072080;28;20201;-82
2024/01/27 09:51:08;;;;;;;12.50;3.43;;;4.10;99.90;;;;;;5071420;28;20219;-82
2024/01/27 09:53:33;;;;;;;16.37;3.70;;;4.20;92.50;;;;;;5072053;28;20184;-79
2024/01/27 09:56:01;;;;;;;8.43;3.20;;;4.30;71.00;;;;;;5073639;28;20201;-81
2024/01/27 09:58:28;;;;;;;12.50;3.37;;;4.40;67.10;;;;;;5074339;28;20738;-81
2024/01/27 10:00:58;;;;;;;8.80;3.60;;;4.40;99.90;;;;;;5073789;28;20169;-81
2024/01/27 10:03:26;;;;;;;11.67;2.83;;;4.50;57.40;;;;;;5072814;28;20569;-82
2024/01/27 10:05:53;;;;;;;10.50;2.97;;;4.50;9.50;;;;;;5072313;28;20212;-82
2024/01/27 10:08:18;;;;;;;7.20;3.13;;;4.50;1.00;;;;;;5072776;28;20182;-81
2024/01/27 10:10:44;;;;;;;8.03;3.27;;;4.70;76.20;;;;;;5071648;28;20173;-80
2024/01/27 10:13:13;;;;;;;12.43;3.60;;;4.70;1.00;;;;;;5072276;28;20227;-81
2024/01/27 10:15:39;;;;;;;10.17;3.70;;;4.70;1.00;;;;;;5073211;28;20571;-81
2024/01/27 10:18:06;;;;;;;7.67;3.53;;;4.80;1.00;;;;;;5071934;28;20201;-81
2024/01/27 10:20:32;;;;;;;7.83;3.43;;;5.00;1.00;;;;;;5072769;28;20173;-80
2024/01/27 10:22:57;;;;;;;7.63;3.57;;;5.10;1.00;;;;;;5072886;28;20170;-81
2024/01/27 10:25:23;;;;;;;11.30;3.17;;;5.00;1.00;;;;;;5072973;28;20241;-80
2024/01/27 10:27:49;;;;;;;11.23;3.70;;;5.10;1.00;;;;;;5072959;28;20176;-80
2024/01/27 10:30:18;;;;;;;10.80;3.40;;;5.30;1.00;;;;;;5072593;28;20175;-78
2024/01/27 10:32:54;;;;;;;10.03;3.40;;;5.30;1.00;;;;;;5071818;28;20200;-80
2024/01/27 10:35:19;;;;;;;9.33;3.40;;;5.40;99.90;;;;;;5071831;28;20674;-80
2024/01/27 10:37:45;;;;;;;9.83;3.20;;;5.70;1.00;;;;;;5071518;28;20180;-80
2024/01/27 10:40:12;;;;;;;9.23;3.80;;;6.00;1.00;;;;;;5071469;28;20731;-80
2024/01/27 10:42:38;;;;;;;8.53;3.40;;;6.10;1.00;;;;;;5071314;28;20178;-80
2024/01/27 10:45:05;;;;;;;11.70;3.77;;;6.00;99.90;;;;;;5071510;28;20177;-80
2024/01/27 10:47:32;;;;;;;10.73;3.73;;;6.00;99.90;;;;;;5070098;28;20220;-81
2024/01/27 10:49:59;;;;;;;13.20;4.13;;;6.00;1.00;;;;;;5078941;28;20173;-80
2024/01/27 10:52:29;;;;;;;12.47;3.37;;;6.10;57.90;;;;;;5067669;28;20181;-80
2024/01/27 10:55:07;;;;;;;11.03;3.47;;;6.20;1.00;;;;;;5064925;28;20183;-77
2024/01/27 10:57:33;;;;;;;11.23;3.70;;;6.30;99.90;;;;;;5072128;28;20629;-80
2024/01/27 11:00:01;;;;;;;7.77;3.17;;;6.20;1.00;;;;;;5071465;28;20231;-80
2024/01/27 11:02:32;;;;;;;18.30;10.63;;;6.40;1.00;;;;;;5070652;28;20168;-80
2024/01/27 11:04:59;;;;;;;12.37;4.40;;;6.60;1.00;;;;;;5071621;28;20204;-79
2024/01/27 11:07:26;;;;;;;11.40;5.03;;;6.70;99.90;;;;;;5131670;23;20231;-82
2024/01/27 11:09:52;;;;;;;11.43;4.07;;;6.90;1.00;;;;;;5092264;28;20173;-82
2024/01/27 11:12:21;;;;;;;10.87;4.30;;;7.00;1.00;;;;;;5091022;28;20182;-82
2024/01/27 11:14:47;;;;;;;9.40;3.90;;;7.10;99.90;;;;;;5093202;28;20203;-82
2024/01/27 11:17:13;;;;;;;10.47;3.37;;;7.30;1.00;;;;;;5092923;28;20194;-83
2024/01/27 11:19:40;;;;;;;13.30;6.37;;;7.20;1.00;;;;;;5091198;28;20208;-83
2024/01/27 11:22:06;;;;;;;10.33;3.20;;;7.40;99.90;;;;;;5092157;28;20165;-82
2024/01/27 11:24:32;;;;;;;9.20;3.23;;;7.60;19.00;;;;;;5092271;28;20175;-82
2024/01/27 11:27:05;;;;;;;10.10;3.03;;;7.80;99.90;;;;;;5092767;28;20189;-83
2024/01/27 11:29:32;;;;;;;6.67;2.47;;;7.80;1.00;;;;;;5092725;28;20182;-83
2024/01/27 11:32:03;;;;;;;13.03;4.53;;;7.80;1.00;;;;;;5092154;28;20173;-83
2024/01/27 11:34:41;;;;;;;12.33;6.00;;;7.70;99.90;;;;;;5094303;28;20209;-83
2024/01/27 11:37:14;;;;;;;14.20;6.03;;;8.10;1.00;;;;;;5096374;28;20229;-82
2024/01/27 11:39:39;;;;;;;10.13;3.10;;;8.70;99.90;;;;;;5095139;28;20210;-82
2024/01/27 11:42:13;;;;;;;9.50;3.30;;;9.80;1.00;;;;;;5094624;28;20542;-82
2024/01/27 11:44:39;;;;;;;7.80;3.03;;;9.60;1.00;;;;;;5096687;28;20180;-83
2024/01/27 11:47:13;;;;;;;7.57;2.70;;;9.50;1.00;;;;;;5095200;28;20580;-83
2024/01/27 11:49:39;;;;;;;13.17;2.90;;;9.20;43.90;;;;;;5094845;28;20201;-84
2024/01/27 11:52:06;;;;;;;7.67;2.80;;;9.30;99.90;;;;;;5096160;28;20172;-84
2024/01/27 11:54:32;;;;;;;8.50;3.23;;;9.10;99.90;;;;;;5095168;28;20263;-84
2024/01/27 11:56:58;;;;;;;12.07;3.33;;;9.10;1.00;;;;;;5094942;28;20239;-84
2024/01/27 11:59:23;;;;;;;7.07;2.80;;;8.90;99.90;;;;;;5096474;28;20210;-84
2024/01/27 12:01:49;;;;;;;9.17;2.90;;;8.90;99.90;;;;;;5094724;28;20178;-84
2024/01/27 12:04:15;;;;;;;10.87;3.20;;;8.80;99.90;;;;;;5096030;28;20176;-84
2024/01/27 12:06:43;;;;;;;10.67;2.80;;;8.80;95.30;;;;;;5095751;28;20291;-84
2024/01/27 12:09:11;;;;;;;7.73;2.80;;;8.90;99.90;;;;;;5096256;28;20183;-84
2024/01/27 12:11:40;;;;;;;7.30;3.00;;;8.80;98.20;;;;;;5095948;28;20543;-84
2024/01/27 12:14:05;;;;;;;7.40;2.73;;;9.20;62.70;;;;;;5096059;28;20176;-84
2024/01/27 12:16:31;;;;;;;7.57;2.67;;;9.40;1.00;;;;;;5096045;28;20695;-83
2024/01/27 12:18:57;;;;;;;12.10;3.17;;;9.50;99.90;;;;;;5096352;28;20207;-84
2024/01/27 12:21:23;;;;;;;8.20;2.50;;;9.80;39.00;;;;;;5093179;28;20168;-83
2024/01/27 12:23:53;;;;;;;8.83;3.27;;;9.70;1.00;;;;;;5086046;28;20173;-84
2024/01/27 12:26:28;;;;;;;7.43;2.63;;;9.60;1.00;;;;;;5074484;28;20200;-84
2024/01/27 12:28:55;;;;;;;9.77;3.33;;;9.60;1.00;;;;;;5088394;28;20214;-83
2024/01/27 12:31:23;;;;;;;8.43;2.83;;;9.60;1.00;;;;;;5093942;28;20172;-84
2024/01/27 12:33:50;;;;;;;8.30;2.80;;;9.60;1.00;;;;;;5093282;28;20176;-84
2024/01/27 12:36:18;;;;;;;7.90;3.03;;;9.90;99.90;;;;;;5096228;28;20192;-84
2024/01/27 12:38:47;;;;;;;9.33;2.93;;;9.60;1.00;;;;;;5096106;28;20227;-85
2024/01/27 12:41:12;;;;;;;5.33;2.57;;;10.00;1.00;;;;;;5094603;28;20709;-84
2024/01/27 12:43:38;;;;;;;6.93;3.00;;;10.20;1.00;;;;;;5096779;28;20168;-84
2024/01/27 12:46:03;;;;;;;9.30;3.03;;;10.30;1.00;;;;;;5094630;28;20195;-84
2024/01/27 12:48:30;;;;;;;9.00;2.90;;;10.00;1.00;;;;;;5095660;28;20230;-84
2024/01/27 12:50:55;;;;;;;9.27;2.90;;;9.90;1.00;;;;;;5094475;28;20176;-84
2024/01/27 12:53:21;;;;;;;9.70;2.60;;;9.90;1.00;;;;;;5094113;28;20233;-84